createdAt,value
2023-02-03T00:01:18.187Z,98247.03
2023-02-03T00:03:45.157Z,98259.94
2023-02-03T00:06:12.051Z,98255.19
2023-02-03T00:08:41.127Z,98254.72
2023-02-03T00:11:08.227Z,98253.09
2023-02-03T00:13:35.240Z,98250.44
2023-02-03T00:16:02.308Z,98253.91
2023-02-03T00:18:29.191Z,98250.44
2023-02-03T00:20:56.049Z,98253.69
2023-02-03T00:23:22.897Z,98246.25
2023-02-03T00:25:49.876Z,98254.50
2023-02-03T00:28:17.118Z,98260.06
2023-02-03T00:30:44.020Z,98261.09
2023-02-03T00:33:10.997Z,98258.44
2023-02-03T00:35:38.504Z,98253.31
2023-02-03T00:38:05.277Z,98257.03
2023-02-03T00:40:32.419Z,98248.66
2023-02-03T00:42:59.236Z,98252.59
2023-02-03T00:45:26.221Z,98256.53
2023-02-03T00:47:53.094Z,98251.41
2023-02-03T00:50:20.168Z,98252.03
2023-02-03T00:52:47.035Z,98250.75
2023-02-03T00:55:13.921Z,98260.16
2023-02-03T00:57:41.403Z,98252.38
2023-02-03T01:00:08.564Z,98252.38
2023-02-03T01:02:36.253Z,98253.41
2023-02-03T01:05:03.274Z,98248.91
2023-02-03T01:07:31.689Z,98247.28
2023-02-03T01:09:58.508Z,98250.97
2023-02-03T01:12:25.909Z,98247.50
2023-02-03T01:14:52.891Z,98244.38
2023-02-03T01:17:19.762Z,98243.34
2023-02-03T01:19:46.795Z,98242.28
2023-02-03T01:22:13.764Z,98245.19
2023-02-03T01:24:40.682Z,98241.72
2023-02-03T01:27:07.597Z,98238.22
2023-02-03T01:29:34.631Z,98244.59
2023-02-03T01:32:01.634Z,98240.91
2023-02-03T01:34:28.622Z,98243.09
2023-02-03T01:36:55.583Z,98243.69
2023-02-03T01:39:22.456Z,98248.81
2023-02-03T01:41:49.349Z,98243.47
2023-02-03T01:44:35.146Z,98242.19
2023-02-03T01:47:03.003Z,98239.88
2023-02-03T01:49:33.527Z,98242.09
2023-02-03T01:52:00.664Z,98242.22
2023-02-03T01:54:38.605Z,98231.91
2023-02-03T01:57:11.880Z,98234.56
2023-02-03T01:59:38.894Z,98231.91
2023-02-03T02:02:07.201Z,98234.81
2023-02-03T02:04:47.273Z,98229.94
2023-02-03T02:07:14.652Z,98232.25
2023-02-03T02:09:41.629Z,98232.47
2023-02-03T02:12:10.079Z,98234.31
2023-02-03T02:14:37.214Z,98231.88
2023-02-03T02:17:28.938Z,98226.53
2023-02-03T02:20:09.100Z,98233.75
2023-02-03T02:22:36.001Z,98223.28
2023-02-03T02:25:08.999Z,98230.03
2023-02-03T02:27:49.014Z,98230.84
2023-02-03T02:30:35.126Z,98225.28
2023-02-03T02:33:20.934Z,98235.94
2023-02-03T02:36:06.550Z,98224.47
2023-02-03T02:38:54.287Z,98226.91
2023-02-03T02:41:31.286Z,98226.22
2023-02-03T02:44:01.730Z,98224.75
2023-02-03T02:46:35.970Z,98226.38
2023-02-03T02:49:08.215Z,98224.63
2023-02-03T02:51:36.972Z,98222.56
2023-02-03T02:54:08.634Z,98230.91
2023-02-03T02:56:36.936Z,98218.97
2023-02-03T02:59:07.170Z,98221.16
2023-02-03T03:01:34.299Z,98218.25
2023-02-03T03:04:05.035Z,98218.03
2023-02-03T03:06:54.301Z,98221.28
2023-02-03T03:09:21.387Z,98216.75
2023-02-03T03:11:53.416Z,98228.03
2023-02-03T03:14:22.621Z,98222.69
2023-02-03T03:16:57.647Z,98231.72
2023-02-03T03:19:26.981Z,98225.56
2023-02-03T03:21:55.865Z,98230.69
2023-02-03T03:24:27.364Z,98226.16
2023-02-03T03:26:57.640Z,98228.81
2023-02-03T03:29:24.440Z,98223.25
2023-02-03T03:31:51.340Z,98220.59
2023-02-03T03:34:19.015Z,98224.88
2023-02-03T03:36:56.306Z,98230.22
2023-02-03T03:39:26.433Z,98226.75
2023-02-03T03:42:02.583Z,98222.44
2023-02-03T03:44:33.163Z,98228.81
2023-02-03T03:47:06.909Z,98224.06
2023-02-03T03:49:34.347Z,98227.56
2023-02-03T03:52:03.366Z,98232.69
2023-02-03T03:54:32.904Z,98230.38
2023-02-03T03:57:07.108Z,98230.94
2023-02-03T03:59:36.430Z,98224.56
2023-02-03T04:02:05.186Z,98222.72
2023-02-03T04:04:33.558Z,98230.72
2023-02-03T04:07:01.366Z,98234.22
2023-02-03T04:09:28.492Z,98226.19
2023-02-03T04:12:01.472Z,98226.78
2023-02-03T04:14:32.624Z,98226.78
2023-02-03T04:16:59.807Z,98226.19
2023-02-03T04:19:26.750Z,98226.19
2023-02-03T04:21:53.781Z,98227.81
2023-02-03T04:24:20.712Z,98240.34
2023-02-03T04:26:47.667Z,98227.00
2023-02-03T04:29:14.473Z,98228.06
2023-02-03T04:31:41.597Z,98231.53
2023-02-03T04:34:08.484Z,98229.44
2023-02-03T04:36:35.293Z,98235.38
2023-02-03T04:39:02.209Z,98229.78
2023-02-03T04:41:29.152Z,98238.63
2023-02-03T04:43:56.109Z,98234.09
2023-02-03T04:46:23.044Z,98229.56
2023-02-03T04:48:50.083Z,98235.47
2023-02-03T04:51:17.017Z,98238.16
2023-02-03T04:53:44.030Z,98229.09
2023-02-03T04:56:11.150Z,98232.34
2023-02-03T04:58:38.112Z,98235.03
2023-02-03T05:01:11.837Z,98236.88
2023-02-03T05:03:39.020Z,98233.63
2023-02-03T05:06:06.089Z,98236.88
2023-02-03T05:08:32.983Z,98235.38
2023-02-03T05:11:02.102Z,98245.00
2023-02-03T05:13:31.824Z,98238.84
2023-02-03T05:16:27.547Z,98233.50
2023-02-03T05:18:54.625Z,98230.38
2023-02-03T05:21:22.569Z,98232.38
2023-02-03T05:23:49.581Z,98235.84
2023-02-03T05:26:19.795Z,98232.38
2023-02-03T05:28:46.866Z,98234.22
2023-02-03T05:31:13.949Z,98232.59
2023-02-03T05:33:40.953Z,98229.47
2023-02-03T05:36:08.144Z,98244.78
2023-02-03T05:38:34.999Z,98238.16
2023-02-03T05:41:20.491Z,98240.59
2023-02-03T05:43:47.344Z,98243.84
2023-02-03T05:46:14.372Z,98241.19
2023-02-03T05:48:45.572Z,98243.03
2023-02-03T05:51:12.391Z,98238.75
2023-02-03T05:53:39.356Z,98240.13
2023-02-03T05:56:06.464Z,98240.13
2023-02-03T05:58:33.521Z,98247.09
2023-02-03T06:01:00.455Z,98243.63
2023-02-03T06:03:27.420Z,98247.44
2023-02-03T06:05:54.329Z,98246.97
2023-02-03T06:08:21.379Z,98247.78
2023-02-03T06:10:48.294Z,98246.50
2023-02-03T06:13:17.554Z,98257.00
2023-02-03T06:15:45.444Z,98250.59
2023-02-03T06:18:15.450Z,98242.13
2023-02-03T06:20:46.707Z,98247.22
2023-02-03T06:23:15.786Z,98247.81
2023-02-03T06:25:43.580Z,98249.53
2023-02-03T06:28:10.925Z,98248.25
2023-02-03T06:30:37.887Z,98248.59
2023-02-03T06:33:05.272Z,98235.47
2023-02-03T06:35:32.399Z,98242.44
2023-02-03T06:37:59.637Z,98255.56
2023-02-03T06:40:27.397Z,98258.81
2023-02-03T06:42:54.738Z,98249.19
2023-02-03T06:45:23.228Z,98259.06
2023-02-03T06:47:50.102Z,98254.75
2023-02-03T06:50:25.353Z,98263.94
2023-02-03T06:52:52.713Z,98250.69
2023-02-03T06:55:19.859Z,98254.53
2023-02-03T06:57:50.107Z,98245.44
2023-02-03T07:00:25.997Z,98242.06
2023-02-03T07:02:54.681Z,98253.91
2023-02-03T07:05:22.491Z,98238.44
2023-02-03T07:07:49.829Z,98237.97
2023-02-03T07:10:17.605Z,98248.75
2023-02-03T07:12:45.747Z,98249.09
2023-02-03T07:15:12.744Z,98252.13
2023-02-03T07:17:39.719Z,98255.38
2023-02-03T07:20:07.205Z,98249.81
2023-02-03T07:22:34.184Z,98255.97
2023-02-03T07:25:01.028Z,98251.19
2023-02-03T07:27:30.036Z,98253.38
2023-02-03T07:29:56.860Z,98258.50
2023-02-03T07:32:23.772Z,98245.22
2023-02-03T07:34:50.680Z,98243.69
2023-02-03T07:37:17.560Z,98249.59
2023-02-03T07:39:46.226Z,98237.84
2023-02-03T07:42:13.088Z,98245.06
2023-02-03T07:44:50.403Z,98244.81
2023-02-03T07:47:19.713Z,98242.28
2023-02-03T07:49:49.716Z,98246.19
2023-02-03T07:52:16.616Z,98242.06
2023-02-03T07:54:43.493Z,98242.94
2023-02-03T07:57:10.379Z,98238.75
2023-02-03T07:59:37.342Z,98236.09
2023-02-03T08:02:04.314Z,98230.97
2023-02-03T08:04:32.738Z,98237.97
2023-02-03T08:06:59.720Z,98233.16
2023-02-03T08:09:26.825Z,98239.91
2023-02-03T08:11:53.720Z,98230.50
2023-02-03T08:14:20.581Z,98222.47
2023-02-03T08:16:49.560Z,98223.91
2023-02-03T08:19:16.423Z,98229.44
2023-02-03T08:21:43.236Z,98223.09
2023-02-03T08:24:10.148Z,98229.88
2023-02-03T08:26:37.715Z,98225.31
2023-02-03T08:29:04.628Z,98226.38
2023-02-03T08:31:31.679Z,98227.66
2023-02-03T08:33:58.676Z,98224.09
2023-02-03T08:36:25.933Z,98227.00
2023-02-03T08:38:55.587Z,98225.31
2023-02-03T08:41:23.012Z,98220.09
2023-02-03T08:43:51.663Z,98218.16
2023-02-03T08:46:19.099Z,98224.56
2023-02-03T08:48:46.981Z,98225.94
2023-02-03T08:51:15.784Z,98222.38
2023-02-03T08:53:43.216Z,98220.66
2023-02-03T08:56:11.805Z,98223.78
2023-02-03T08:58:39.559Z,98222.25
2023-02-03T09:01:13.970Z,98220.38
2023-02-03T09:03:41.298Z,98214.75
2023-02-03T09:06:08.608Z,98224.91
2023-02-03T09:08:37.319Z,98224.03
2023-02-03T09:11:09.526Z,98218.00
2023-02-03T09:13:37.817Z,98219.63
2023-02-03T09:16:06.658Z,98214.38
2023-02-03T09:18:34.329Z,98207.53
2023-02-03T09:21:02.581Z,98213.47
2023-02-03T09:23:30.001Z,98220.66
2023-02-03T09:25:57.112Z,98213.25
2023-02-03T09:28:24.272Z,98218.72
2023-02-03T09:30:51.299Z,98209.25
2023-02-03T09:33:18.381Z,98209.75
2023-02-03T09:35:55.340Z,98208.44
2023-02-03T09:38:29.552Z,98223.06
2023-02-03T09:41:11.294Z,98201.69
2023-02-03T09:43:51.096Z,98216.72
2023-02-03T09:46:20.262Z,98206.50
2023-02-03T09:48:49.581Z,98203.00
2023-02-03T09:51:22.709Z,98210.47
2023-02-03T09:53:54.192Z,98202.13
2023-02-03T09:56:28.553Z,98210.91
2023-02-03T09:58:55.635Z,98210.00
2023-02-03T10:01:25.169Z,98216.91
2023-02-03T10:04:03.150Z,98209.44
2023-02-03T10:06:36.242Z,98211.38
2023-02-03T10:09:02.984Z,98210.41
2023-02-03T10:11:49.925Z,98215.34
2023-02-03T10:14:32.144Z,98208.16
2023-02-03T10:17:34.508Z,98207.69
2023-02-03T10:20:05.157Z,98211.97
2023-02-03T10:22:34.808Z,98209.03
2023-02-03T10:25:07.276Z,98211.47
2023-02-03T10:27:35.234Z,98207.72
2023-02-03T10:30:05.805Z,98202.94
2023-02-03T10:32:33.976Z,98196.75
2023-02-03T10:35:02.101Z,98203.44
2023-02-03T10:37:44.075Z,98195.88
2023-02-03T10:40:16.222Z,98200.94
2023-02-03T10:43:03.379Z,98199.56
2023-02-03T10:45:34.029Z,98203.00
2023-02-03T10:48:01.196Z,98199.81
2023-02-03T10:50:32.099Z,98195.25
2023-02-03T10:53:25.358Z,98196.31
2023-02-03T10:56:04.103Z,98194.44
2023-02-03T10:58:33.566Z,98192.59
2023-02-03T11:01:09.782Z,98182.34
2023-02-03T11:03:38.477Z,98195.69
2023-02-03T11:06:09.154Z,98192.16
2023-02-03T11:08:38.516Z,98191.56
2023-02-03T11:11:08.819Z,98188.06
2023-02-03T11:13:36.193Z,98185.63
2023-02-03T11:16:22.236Z,98180.81
2023-02-03T11:19:01.480Z,98180.34
2023-02-03T11:21:32.660Z,98184.16
2023-02-03T11:24:14.940Z,98182.34
2023-02-03T11:26:48.291Z,98176.56
2023-02-03T11:29:17.825Z,98172.06
2023-02-03T11:31:48.228Z,98181.22
2023-02-03T11:34:17.017Z,98179.13
2023-02-03T11:36:43.896Z,98175.94
2023-02-03T11:39:19.578Z,98175.63
2023-02-03T11:41:47.388Z,98180.19
2023-02-03T11:44:17.235Z,98179.69
2023-02-03T11:46:45.065Z,98185.63
2023-02-03T11:49:32.766Z,98183.75
2023-02-03T11:52:02.891Z,98180.06
2023-02-03T11:54:46.047Z,98184.72
2023-02-03T11:57:30.713Z,98177.47
2023-02-03T12:00:29.332Z,98171.34
2023-02-03T12:02:56.412Z,98173.31
2023-02-03T12:05:29.568Z,98166.31
2023-02-03T12:07:57.692Z,98173.78
2023-02-03T12:10:45.952Z,98164.91
2023-02-03T12:13:30.698Z,98163.00
2023-02-03T12:15:58.179Z,98163.19
2023-02-03T12:18:47.879Z,98162.34
2023-02-03T12:22:13.298Z,98156.34
2023-02-03T12:25:27.610Z,98162.94
2023-02-03T12:28:33.995Z,98158.84
2023-02-03T12:32:10.459Z,98155.84
2023-02-03T12:34:41.645Z,98156.34
2023-02-03T12:37:12.981Z,98157.66
2023-02-03T12:39:46.104Z,98154.91
2023-02-03T12:42:22.254Z,98154.03
2023-02-03T12:44:57.001Z,98160.94
2023-02-03T12:47:28.197Z,98159.81
2023-02-03T12:49:58.114Z,98162.19
2023-02-03T12:52:43.432Z,98163.00
2023-02-03T12:55:22.993Z,98157.38
2023-02-03T12:58:03.544Z,98158.19
2023-02-03T13:00:44.478Z,98157.13
2023-02-03T13:03:15.216Z,98161.69
2023-02-03T13:05:46.086Z,98159.50
2023-02-03T13:08:24.328Z,98159.19
2023-02-03T13:11:41.492Z,98168.78
2023-02-03T13:14:18.913Z,98163.94
2023-02-03T13:17:01.579Z,98156.94
2023-02-03T13:19:52.545Z,98155.88
2023-02-03T13:22:24.088Z,98151.59
2023-02-03T13:25:04.342Z,98160.59
2023-02-03T13:27:42.177Z,98149.47
2023-02-03T13:30:18.979Z,98155.03
2023-02-03T13:33:03.356Z,98162.19
2023-02-03T13:35:34.216Z,98159.63
2023-02-03T13:38:16.002Z,98164.69
2023-02-03T13:41:16.363Z,98162.00
2023-02-03T13:44:10.734Z,98163.53
2023-02-03T13:46:42.805Z,98167.19
2023-02-03T13:49:11.089Z,98165.00
2023-02-03T13:51:43.886Z,98160.63
2023-02-03T13:54:23.716Z,98168.59
2023-02-03T13:56:56.416Z,98166.63
2023-02-03T13:59:33.203Z,98174.81
2023-02-03T14:02:19.316Z,98169.84
2023-02-03T14:04:46.454Z,98169.53
2023-02-03T14:07:35.331Z,98168.16
2023-02-03T14:10:08.228Z,98167.59
2023-02-03T14:12:36.617Z,98167.81
2023-02-03T14:15:36.899Z,98174.19
2023-02-03T14:18:24.154Z,98170.16
2023-02-03T14:20:54.354Z,98180.28
2023-02-03T14:23:25.264Z,98166.56
2023-02-03T14:25:55.253Z,98168.91
2023-02-03T14:28:28.904Z,98163.56
2023-02-03T14:31:05.467Z,98162.50
2023-02-03T14:34:05.117Z,98167.88
2023-02-03T14:36:35.563Z,98164.13
2023-02-03T14:39:18.714Z,98166.00
2023-02-03T14:41:54.073Z,98166.25
2023-02-03T14:44:21.201Z,98172.66
2023-02-03T14:47:08.412Z,98165.91
2023-02-03T14:49:53.827Z,98170.13
2023-02-03T14:52:23.807Z,98163.63
2023-02-03T14:54:59.876Z,98176.44
2023-02-03T14:57:32.983Z,98170.72
2023-02-03T15:00:03.737Z,98164.81
2023-02-03T15:02:31.390Z,98171.44
2023-02-03T15:05:24.719Z,98178.41
2023-02-03T15:07:52.667Z,98172.59
2023-02-03T15:10:21.393Z,98172.94
2023-02-03T15:12:52.875Z,98173.53
2023-02-03T15:15:22.137Z,98176.44
2023-02-03T15:17:50.880Z,98166.19
2023-02-03T15:20:24.087Z,98176.88
2023-02-03T15:22:51.063Z,98170.97
2023-02-03T15:25:19.123Z,98170.63
2023-02-03T15:27:46.092Z,98169.25
2023-02-03T15:30:24.415Z,98170.53
2023-02-03T15:33:02.997Z,98169.97
2023-02-03T15:35:32.255Z,98171.25
2023-02-03T15:38:03.436Z,98176.03
2023-02-03T15:40:38.792Z,98168.00
2023-02-03T15:43:05.745Z,98168.50
2023-02-03T15:45:42.054Z,98185.25
2023-02-03T15:48:18.382Z,98187.34
2023-02-03T15:50:48.234Z,98190.22
2023-02-03T15:53:45.169Z,98193.75
2023-02-03T15:56:20.295Z,98196.19
2023-02-03T15:58:47.963Z,98179.66
2023-02-03T16:01:18.070Z,98201.06
2023-02-03T16:03:55.434Z,98198.38
2023-02-03T16:06:38.452Z,98204.53
2023-02-03T16:09:07.231Z,98196.75
2023-02-03T16:11:38.408Z,98205.81
2023-02-03T16:14:08.951Z,98208.25
2023-02-03T16:16:39.044Z,98210.13
2023-02-03T16:19:16.454Z,98201.06
2023-02-03T16:21:50.521Z,98208.50
2023-02-03T16:24:32.937Z,98201.75
2023-02-03T16:27:22.041Z,98201.41
2023-02-03T16:30:10.076Z,98200.34
2023-02-03T16:32:56.749Z,98209.78
2023-02-03T16:35:44.782Z,98205.00
2023-02-03T16:38:34.443Z,98211.75
2023-02-03T16:41:30.194Z,98208.03
2023-02-03T16:44:18.152Z,98213.38
2023-02-03T16:47:08.295Z,98210.94
2023-02-03T16:49:57.957Z,98220.00
2023-02-03T16:52:47.385Z,98213.28
2023-02-03T16:55:33.953Z,98213.94
2023-02-03T16:58:50.511Z,98216.63
2023-02-03T17:02:58.717Z,98215.00
2023-02-03T17:05:04.055Z,98218.63
2023-02-03T17:07:33.899Z,98231.06
2023-02-03T17:10:39.797Z,98233.41
2023-02-03T17:13:49.368Z,98242.13
2023-02-03T17:20:03.512Z,98234.56
2023-02-03T17:22:44.401Z,98243.63
2023-02-03T17:25:15.200Z,98234.78
2023-02-03T17:27:45.188Z,98240.97
2023-02-03T17:30:15.656Z,98248.97
2023-02-03T17:32:45.483Z,98250.81
2023-02-03T17:35:15.167Z,98241.78
2023-02-03T17:37:45.131Z,98247.31
2023-02-03T17:54:30.366Z,98253.63
2023-02-03T17:56:57.390Z,98257.56
2023-02-03T18:02:38.696Z,98257.31
2023-02-03T18:05:08.065Z,98258.13
2023-02-03T18:07:35.326Z,98264.88
2023-02-03T18:10:33.983Z,98268.94
2023-02-03T18:13:23.323Z,98268.13
2023-02-03T18:15:53.085Z,98263.84
2023-02-03T18:18:35.462Z,98267.31
2023-02-03T18:21:20.304Z,98269.75
2023-02-03T18:23:49.060Z,98266.84
2023-02-03T18:26:22.546Z,98276.72
2023-02-03T18:28:54.034Z,98271.63
2023-02-03T18:31:22.929Z,98280.69
2023-02-03T18:33:54.031Z,98279.06
2023-02-03T18:36:21.752Z,98284.41
2023-02-03T18:38:49.171Z,98292.19
2023-02-03T18:41:19.492Z,98282.88
2023-02-03T18:43:49.422Z,98286.41
2023-02-03T18:46:26.996Z,98286.41
2023-02-03T18:48:54.135Z,98290.09
2023-02-03T18:51:21.767Z,98292.19
2023-02-03T18:53:52.414Z,98290.56
2023-02-03T18:56:45.441Z,98299.03
2023-02-03T18:59:14.540Z,98291.47
2023-02-03T19:01:41.638Z,98299.72
2023-02-03T19:04:09.652Z,98300.53
2023-02-03T19:13:23.258Z,98300.31
2023-02-03T19:15:51.786Z,98296.81
2023-02-03T19:18:21.545Z,98300.31
2023-02-03T19:20:48.597Z,98297.63
2023-02-03T19:23:19.063Z,98296.38
2023-02-03T19:25:52.831Z,98299.84
2023-02-03T19:28:30.462Z,98298.81
2023-02-03T19:31:12.986Z,98300.44
2023-02-03T19:33:46.734Z,98303.34
2023-02-03T19:36:17.095Z,98305.19
2023-02-03T19:38:46.889Z,98303.34
2023-02-03T19:41:39.315Z,98299.63
2023-02-03T19:44:07.176Z,98312.50
2023-02-03T19:46:45.390Z,98310.66
2023-02-03T19:49:15.732Z,98308.78
2023-02-03T19:51:50.330Z,98314.13
2023-02-03T19:54:18.525Z,98321.09
2023-02-03T19:56:45.874Z,98319.25
2023-02-03T19:59:16.821Z,98318.44
2023-02-03T20:01:47.099Z,98326.69
2023-02-03T20:04:22.800Z,98331.69
2023-02-03T20:06:52.480Z,98330.28
2023-02-03T20:09:19.778Z,98323.53
2023-02-03T20:11:53.554Z,98333.41
2023-02-03T20:14:22.547Z,98332.03
2023-02-03T20:16:53.370Z,98332.25
2023-02-03T20:19:26.837Z,98323.84
2023-02-03T20:22:19.952Z,98335.00
2023-02-03T20:24:47.054Z,98340.34
2023-02-03T20:27:17.401Z,98336.84
2023-02-03T20:29:44.708Z,98340.34
2023-02-03T20:32:14.873Z,98340.81
2023-02-03T20:35:08.917Z,98346.38
2023-02-03T20:37:51.116Z,98350.53
2023-02-03T20:40:21.340Z,98354.72
2023-02-03T20:42:52.329Z,98354.94
2023-02-03T20:45:38.545Z,98359.69
2023-02-03T20:48:09.248Z,98357.25
2023-02-03T20:50:42.214Z,98367.34
2023-02-03T20:53:21.674Z,98371.28
2023-02-03T20:55:52.686Z,98365.97
2023-02-03T20:58:23.563Z,98373.38
2023-02-03T21:00:51.736Z,98370.09
2023-02-03T21:03:46.705Z,98367.66
2023-02-03T21:06:22.159Z,98377.75
2023-02-03T21:08:49.381Z,98370.78
2023-02-03T21:11:30.939Z,98369.16
2023-02-03T21:14:16.853Z,98373.66
2023-02-03T21:16:50.068Z,98377.38
2023-02-03T21:19:41.396Z,98383.53
2023-02-03T21:22:16.311Z,98389.91
2023-02-03T21:24:48.770Z,98390.72
2023-02-03T21:27:29.424Z,98395.84
2023-02-03T21:30:04.374Z,98392.94
2023-02-03T21:32:41.589Z,98400.50
2023-02-03T21:35:28.181Z,98396.78
2023-02-03T21:38:03.271Z,98386.09
2023-02-03T21:40:34.940Z,98392.88
2023-02-03T21:43:05.582Z,98389.97
2023-02-03T21:45:41.286Z,98382.78
2023-02-03T21:48:41.255Z,98388.34
2023-02-03T21:51:24.761Z,98399.69
2023-02-03T21:53:54.616Z,98403.97
2023-02-03T21:56:30.400Z,98405.59
2023-02-03T21:58:59.088Z,98402.75
2023-02-03T22:01:26.759Z,98396.38
2023-02-03T22:04:00.759Z,98398.00
2023-02-03T22:06:37.121Z,98406.81
2023-02-03T22:09:04.057Z,98404.16
2023-02-03T22:11:30.990Z,98405.78
2023-02-03T22:13:57.862Z,98406.34
2023-02-03T22:16:27.343Z,98404.28
2023-02-03T22:18:56.495Z,98408.34
2023-02-03T22:21:32.720Z,98409.16
2023-02-03T22:24:01.770Z,98416.13
2023-02-03T22:26:37.136Z,98410.78
2023-02-03T22:29:25.445Z,98409.97
2023-02-03T22:31:54.649Z,98409.97
2023-02-03T22:34:25.148Z,98411.03
2023-02-03T22:36:55.219Z,98413.69
2023-02-03T22:39:24.888Z,98407.31
2023-02-03T22:41:54.893Z,98410.78
2023-02-03T22:47:13.247Z,98415.44
2023-02-03T22:49:45.257Z,98405.34
2023-02-03T22:52:14.278Z,98421.16
2023-02-03T22:54:46.184Z,98429.53
2023-02-03T22:57:20.060Z,98417.22
2023-02-03T22:59:49.951Z,98426.84
2023-02-03T23:02:27.732Z,98424.75
2023-02-03T23:04:59.425Z,98421.66
2023-02-03T23:07:26.687Z,98422.25
2023-02-03T23:09:54.959Z,98431.66
2023-02-03T23:12:28.840Z,98433.28
2023-02-03T23:14:57.895Z,98427.72
2023-02-03T23:17:35.390Z,98433.41
2023-02-03T23:20:06.497Z,98437.50
2023-02-03T23:22:39.645Z,98438.06
2023-02-03T23:25:06.611Z,98438.66
2023-02-03T23:27:36.068Z,98436.56
2023-02-03T23:30:05.064Z,98439.03
2023-02-03T23:32:36.028Z,98446.81
2023-02-03T23:35:28.989Z,98433.09
2023-02-03T23:38:10.721Z,98441.91
2023-02-03T23:40:46.532Z,98443.19
2023-02-03T23:43:17.926Z,98442.84
2023-02-03T23:45:45.801Z,98437.72
2023-02-03T23:48:26.275Z,98442.47
2023-02-03T23:51:00.294Z,98440.25
2023-02-03T23:53:30.532Z,98446.66
2023-02-03T23:56:00.462Z,98453.03
2023-02-03T23:58:36.448Z,98449.78
